createdAt,value
2019-04-26T00:03:22.993Z,10
2019-04-26T00:08:25.502Z,8
2019-04-26T00:13:27.873Z,8
2019-04-26T00:18:30.297Z,8
2019-04-26T00:23:32.740Z,13
2019-04-26T00:28:35.320Z,7
2019-04-26T00:33:37.689Z,9
2019-04-26T00:38:40.180Z,7
2019-04-26T00:43:42.726Z,8
2019-04-26T00:48:45.043Z,10
2019-04-26T00:53:47.499Z,9
2019-04-26T00:58:49.959Z,9
2019-04-26T01:03:52.457Z,10
2019-04-26T01:08:54.862Z,6
2019-04-26T01:13:57.333Z,7
2019-04-26T01:18:59.820Z,10
2019-04-26T01:24:02.269Z,8
2019-04-26T01:29:04.836Z,8
2019-04-26T01:34:07.276Z,11
2019-04-26T01:39:09.606Z,10
2019-04-26T01:44:12.159Z,12
2019-04-26T01:49:14.643Z,15
2019-04-26T01:54:17.174Z,14
2019-04-26T01:59:19.496Z,16
2019-04-26T02:04:22.836Z,12
2019-04-26T02:09:24.369Z,13
2019-04-26T02:14:26.994Z,9
2019-04-26T02:19:29.511Z,9
2019-04-26T02:24:32.196Z,11
2019-04-26T02:29:34.734Z,12
2019-04-26T02:34:37.913Z,10
2019-04-26T02:39:39.105Z,10
2019-04-26T02:44:41.657Z,9
2019-04-26T02:49:44.070Z,12
2019-04-26T02:54:46.477Z,14
2019-04-26T02:59:49.110Z,10
2019-04-26T03:04:51.722Z,13
2019-04-26T03:09:53.908Z,13
2019-04-26T03:15:12.029Z,8
2019-04-26T03:19:58.978Z,10
2019-04-26T03:25:01.521Z,10
2019-04-26T03:30:18.139Z,10
2019-04-26T03:35:06.358Z,13
2019-04-26T03:40:08.626Z,22
2019-04-26T03:45:11.273Z,13
2019-04-26T03:50:13.517Z,10
2019-04-26T03:55:16.321Z,11
2019-04-26T04:00:18.520Z,13
2019-04-26T04:10:23.570Z,14
2019-04-26T04:15:25.905Z,10
2019-04-26T04:20:28.305Z,9
2019-04-26T04:25:30.832Z,15
2019-04-26T04:30:33.186Z,11
2019-04-26T04:35:35.668Z,14
2019-04-26T04:40:38.154Z,10
2019-04-26T04:45:42.377Z,11
2019-04-26T04:50:44.780Z,12
2019-04-26T04:55:46.265Z,15
2019-04-26T05:00:47.970Z,12
2019-04-26T05:05:51.104Z,14
2019-04-26T05:10:52.866Z,14
2019-04-26T05:15:55.421Z,14
2019-04-26T05:20:57.762Z,12
2019-04-26T05:26:00.377Z,9
2019-04-26T05:31:02.673Z,8
2019-04-26T05:36:05.341Z,20
2019-04-26T05:41:07.607Z,11
2019-04-26T05:46:10.107Z,9
2019-04-26T05:51:12.550Z,10
2019-04-26T05:56:15.058Z,9
2019-04-26T06:01:17.452Z,10
2019-04-26T06:06:19.934Z,10
2019-04-26T06:11:22.342Z,19
2019-04-26T06:16:25.014Z,18
2019-04-26T06:21:27.396Z,16
2019-04-26T06:26:29.768Z,15
2019-04-26T06:31:32.323Z,9
2019-04-26T06:36:34.873Z,12
2019-04-26T06:41:37.229Z,14
2019-04-26T06:46:39.777Z,8
2019-04-26T06:51:42.721Z,5
2019-04-26T06:56:44.507Z,9
2019-04-26T07:01:46.964Z,8
2019-04-26T07:06:49.781Z,8
2019-04-26T07:11:51.891Z,11
2019-04-26T07:16:54.656Z,8
2019-04-26T07:21:56.864Z,6
2019-04-26T07:27:01.236Z,7
2019-04-26T07:32:02.147Z,6
2019-04-26T07:37:04.635Z,7
2019-04-26T07:42:07.360Z,4
2019-04-26T07:47:09.106Z,12
2019-04-26T07:52:12.604Z,11
2019-04-26T07:57:14.135Z,5
2019-04-26T08:02:16.475Z,6
2019-04-26T08:07:19.282Z,4
2019-04-26T08:12:21.468Z,5
2019-04-26T08:17:23.856Z,5
2019-04-26T08:22:28.593Z,6
2019-04-26T08:27:28.864Z,6
2019-04-26T08:32:32.012Z,8
2019-04-26T08:37:36.445Z,7
2019-04-26T08:42:36.360Z,9
2019-04-26T08:47:38.705Z,7
2019-04-26T08:52:41.628Z,4
2019-04-26T08:57:43.575Z,8
2019-04-26T09:02:46.467Z,5
2019-04-26T09:07:48.841Z,5
2019-04-26T09:12:51.073Z,3
2019-04-26T09:17:53.526Z,5
2019-04-26T09:22:56.216Z,5
2019-04-26T09:27:58.977Z,5
2019-04-26T09:33:01.938Z,6
2019-04-26T09:38:03.856Z,8
2019-04-26T09:43:05.979Z,5
2019-04-26T09:48:08.389Z,5
2019-04-26T09:53:10.680Z,3
2019-04-26T09:58:13.135Z,4
2019-04-26T10:03:15.636Z,6
2019-04-26T10:08:18.350Z,6
2019-04-26T10:13:20.552Z,5
2019-04-26T10:18:24.248Z,7
2019-04-26T10:23:25.452Z,7
2019-04-26T10:28:27.930Z,8
2019-04-26T10:33:32.516Z,5
2019-04-26T10:38:33.119Z,6
2019-04-26T10:43:35.509Z,4
2019-04-26T10:48:37.925Z,7
2019-04-26T10:53:40.179Z,8
2019-04-26T10:58:42.679Z,6
2019-04-26T11:03:45.109Z,6
2019-04-26T11:08:47.886Z,7
2019-04-26T11:13:50.009Z,5
2019-04-26T11:18:52.942Z,4
2019-04-26T11:23:54.928Z,5
2019-04-26T11:28:57.423Z,7
2019-04-26T11:34:05.275Z,5
2019-04-26T11:39:05.412Z,4
2019-04-26T11:44:04.873Z,6
2019-04-26T11:49:08.234Z,4
2019-04-26T11:54:09.841Z,4
2019-04-26T11:59:12.452Z,6
2019-04-26T12:04:14.677Z,9
2019-04-26T12:09:17.431Z,5
2019-04-26T12:14:20.729Z,5
2019-04-26T12:19:22.277Z,5
2019-04-26T12:24:25.215Z,5
2019-04-26T12:29:26.903Z,5
2019-04-26T12:34:29.385Z,6
2019-04-26T12:39:36.459Z,7
2019-04-26T12:44:36.362Z,6
2019-04-26T12:49:36.948Z,7
2019-04-26T12:54:42.850Z,6
2019-04-26T12:59:44.157Z,12
2019-04-26T13:04:44.639Z,12
2019-04-26T13:09:46.772Z,7
2019-04-26T13:19:53.794Z,8
2019-04-26T13:24:53.974Z,7
2019-04-26T13:30:02.304Z,6
2019-04-26T13:34:58.945Z,8
2019-04-26T13:40:01.382Z,10
2019-04-26T13:45:03.809Z,5
2019-04-26T13:50:06.395Z,6
2019-04-26T13:55:08.838Z,8
2019-04-26T14:00:11.576Z,5
2019-04-26T14:05:15.057Z,4
2019-04-26T14:10:16.477Z,8
2019-04-26T14:15:18.606Z,5
2019-04-26T14:20:23.243Z,8
2019-04-26T14:25:26.921Z,6
2019-04-26T14:30:25.931Z,6
2019-04-26T14:35:28.660Z,8
2019-04-26T14:40:30.883Z,5
2019-04-26T14:45:36.241Z,7
2019-04-26T14:50:35.900Z,5
2019-04-26T14:55:38.360Z,6
2019-04-26T15:00:40.721Z,5
2019-04-26T15:10:48.745Z,8
2019-04-26T15:15:48.106Z,7
2019-04-26T15:20:53.042Z,8
2019-04-26T15:25:53.435Z,10
2019-04-26T15:30:55.453Z,12
2019-04-26T15:35:58.152Z,15
2019-04-26T15:41:00.346Z,17
2019-04-26T15:46:02.818Z,18
2019-04-26T15:51:05.303Z,20
2019-04-26T16:01:10.773Z,24
2019-04-26T16:06:12.767Z,26
2019-04-26T16:11:15.121Z,27
2019-04-26T16:16:20.439Z,29
2019-04-26T16:21:20.115Z,30
2019-04-26T16:26:22.911Z,29
2019-04-26T16:31:24.977Z,30
2019-04-26T16:36:27.482Z,29
2019-04-26T16:41:34.182Z,29
2019-04-26T16:46:33.233Z,27
2019-04-26T16:51:34.759Z,26
2019-04-26T16:56:37.254Z,24
2019-04-26T17:01:43.344Z,28
2019-04-26T17:06:44.673Z,27
2019-04-26T17:11:44.607Z,26
2019-04-26T17:16:47.091Z,24
2019-04-26T17:21:49.533Z,27
2019-04-26T17:26:52.018Z,27
2019-04-26T17:31:54.447Z,28
2019-04-26T17:36:56.942Z,30
2019-04-26T17:42:00.837Z,30
2019-04-26T17:47:02.195Z,31
2019-04-26T17:52:04.281Z,34
2019-04-26T17:57:08.690Z,30
2019-04-26T18:02:20.330Z,31
2019-04-26T18:07:34.556Z,35
2019-04-26T18:12:14.115Z,33
2019-04-26T18:17:16.596Z,34
2019-04-26T18:22:19.003Z,25
2019-04-26T18:27:21.503Z,26
2019-04-26T18:32:24.553Z,20
2019-04-26T18:37:26.421Z,20
2019-04-26T18:42:28.922Z,14
2019-04-26T18:47:31.297Z,10
2019-04-26T18:52:34.136Z,12
2019-04-26T18:57:36.208Z,12
2019-04-26T19:02:38.689Z,10
2019-04-26T19:07:41.210Z,9
2019-04-26T19:12:43.671Z,8
2019-04-26T19:17:46.076Z,8
2019-04-26T19:22:50.288Z,3
2019-04-26T19:27:52.273Z,3
2019-04-26T19:32:53.884Z,2
2019-04-26T19:37:55.941Z,3
2019-04-26T19:43:01.839Z,3
2019-04-26T19:48:02.279Z,3
2019-04-26T19:53:03.333Z,3
2019-04-26T19:58:09.548Z,3
2019-04-26T20:03:08.433Z,4
2019-04-26T20:08:12.012Z,4
2019-04-26T20:13:14.949Z,4
2019-04-26T20:18:17.430Z,4
2019-04-26T20:23:19.571Z,4
2019-04-26T20:28:20.558Z,3
2019-04-26T20:33:26.572Z,3
2019-04-26T20:38:25.461Z,2
2019-04-26T20:43:27.844Z,1
2019-04-26T20:48:33.050Z,2
2019-04-26T20:53:39.795Z,2
2019-04-26T20:58:37.377Z,2
2019-04-26T21:03:41.629Z,2
2019-04-26T21:08:42.297Z,2
2019-04-26T21:13:42.561Z,2
2019-04-26T21:18:45.023Z,2
2019-04-26T21:23:47.535Z,2
2019-04-26T21:28:51.929Z,2
2019-04-26T21:33:53.520Z,2
2019-04-26T21:38:54.889Z,2
2019-04-26T21:43:57.319Z,2
2019-04-26T21:49:00.166Z,2
2019-04-26T21:54:03.737Z,3
2019-04-26T21:59:05.507Z,3
2019-04-26T22:04:07.164Z,4
2019-04-26T22:09:09.652Z,4
2019-04-26T22:14:13.074Z,3
2019-04-26T22:19:14.713Z,4
2019-04-26T22:24:17.377Z,4
2019-04-26T22:29:19.432Z,4
2019-04-26T22:34:23.517Z,5
2019-04-26T22:39:24.480Z,6
2019-04-26T22:44:31.142Z,6
2019-04-26T22:49:29.330Z,4
2019-04-26T22:54:33.098Z,4
2019-04-26T22:59:38.056Z,4
2019-04-26T23:04:36.694Z,4
2019-04-26T23:09:39.121Z,5
2019-04-26T23:14:41.604Z,6
2019-04-26T23:19:44.451Z,6
2019-04-26T23:24:49.127Z,7
2019-04-26T23:29:49.781Z,7
2019-04-26T23:34:53.121Z,6
2019-04-26T23:39:53.970Z,7
2019-04-26T23:44:56.698Z,7
2019-04-26T23:49:59.136Z,7
2019-04-26T23:55:05.473Z,7
